Terminal Aerodrome Forecast
Issued by NWS

Home | Current Version | Previous Version | Text Only | Print | Product List | Glossary On
Versions: 1 2 3 4 5 6 7 8 9 10 11 12 13 14 15 16 17 18
000
FTUS43 KPAH 011120
TAFCGI
TAF
KCGI 011120Z 0112/0212 VRB03KT 4SM -SHRA SCT030 BKN100
     FM011400 VRB04KT P6SM SCT040 BKN100
      TEMPO 0118/0122 -SHRA
     FM020000 19005KT 6SM -SHRA BKN100 PROB30 0200/0206 TS BKN060CB
     FM020600 20007KT 3SM SHRA OVC030 PROB30 0206/0212 1SM TSRA
      OVC010CB=

USA.gov is the U.S. government's official web portal to all federal, state and local government web resources and services.